Portada
METAR-TAF:

METAR-TAF

Aeroports :

Teheran, Iran

latitud: 35-41N, longitud: 051-21E, altitud: 1204 m

Observació

L'informe es va fer fa 22 minuts, a les 03:30 UTC
Vent calma
Temperatura 22°C
Humitat 35%
Pressió 1021 hPa
Visibilitat 10 km o més
sense núvols per sota de 1500 mi sense presència de cumulonimbus.

METAR: OIII 220330Z 00000KT CAVOK 22/06 Q1021 A3015

Hora: 07:22 (03:52 UTC)

Pronòstic

L'informe es va fer fa 4 hores i 42 minuts, a les 23:10 UTC
Pronòstic vàlid del 22 a les 00 UTC al 23 a les 06 UTC
Vent 8 kt del Nord/Nord-Oest
Visibilitat: 8000 m
Temporalment
l' 22 a les 08 UTC al 22 a les 15 UTC
Escasses núvols a una alçada de 3500 ft
Núvols disperses a una alçada de 10000 ft

TAF: OIII 212310Z 2200/2306 33008KT 8000 NSC TEMPO 2208/2215 FEW035 SCT100

Observacions i pronòstics meteorològics de més de 4000 aeroports (METAR i TAF).

Les estacions disponibles són els punts grocs i vermells al mapa.

Posi el ratolí al punt desitjat per veure el nom de l'estació.

Feu clic per veure les observacions i els pronòstics meteorològics.

Per canviar el mapa: feu clic els botons verds amb una creu de color negre per apropar; al botó verd amb un guió per allunyar la imatge; o en les fletxes verdes per a mapes adjacents.


METAR-TAF: